Time;durP1;ratioP1;P1;durP2;ratioP2;P2;SDS_P1;SDS_P2;PMS_P1;PMS_P2;Temp;Humidity;BMP_temperature;BMP_pressure;BME280_temperature;BME280_humidity;BME280_pressure;Samples;Min_cycle;Max_cycle;Signal;HPM_P1;HPM_P2
2022/04/04 00:01:44;;;;;;;21.27;5.75;;;;;;;;;;5111834;28;20210;-70
2022/04/04 00:04:12;;;;;;;23.48;6.18;;;;;;;;;;5112022;28;20206;-71
2022/04/04 00:06:40;;;;;;;22.40;5.80;;;;;;;;;;5111996;28;20207;-71
2022/04/04 00:09:08;;;;;;;27.27;6.70;;;;;;;;;;5111794;28;20288;-70
2022/04/04 00:11:36;;;;;;;20.55;5.43;;;;;;;;;;5111941;28;20214;-71
2022/04/04 00:14:03;;;;;;;22.48;7.00;;;;;;;;;;5111934;28;20207;-70
2022/04/04 00:16:32;;;;;;;22.80;5.45;;;;;;;;;;5111746;28;20207;-72
2022/04/04 00:19:00;;;;;;;20.33;5.85;;;;;;;;;;5111739;28;20238;-70
2022/04/04 00:21:28;;;;;;;19.80;6.50;;;;;;;;;;5111861;28;20215;-70
2022/04/04 00:23:55;;;;;;;24.83;6.20;;;;;;;;;;5111808;28;20207;-70
2022/04/04 00:26:24;;;;;;;22.95;6.25;;;;;;;;;;5111647;28;20668;-70
2022/04/04 00:28:51;;;;;;;22.27;6.55;;;;;;;;;;5111466;28;20581;-71
2022/04/04 00:31:19;;;;;;;26.02;6.38;;;;;;;;;;5111433;28;20210;-70
2022/04/04 00:33:46;;;;;;;21.23;6.30;;;;;;;;;;5111669;28;20214;-71
2022/04/04 00:36:14;;;;;;;21.77;6.00;;;;;;;;;;5111551;28;20238;-71
2022/04/04 00:38:42;;;;;;;21.98;6.30;;;;;;;;;;5111370;28;20214;-71
2022/04/04 00:41:10;;;;;;;27.08;7.35;;;;;;;;;;5111111;28;20699;-70
2022/04/04 00:43:39;;;;;;;22.45;7.40;;;;;;;;;;5111228;28;20211;-71
2022/04/04 00:46:07;;;;;;;23.13;7.05;;;;;;;;;;5111434;28;20216;-70
2022/04/04 00:48:35;;;;;;;20.58;5.97;;;;;;;;;;5111399;28;20211;-71
2022/04/04 00:51:02;;;;;;;24.00;7.13;;;;;;;;;;5110977;28;20733;-70
2022/04/04 00:53:30;;;;;;;26.48;7.72;;;;;;;;;;5111203;28;20226;-70
2022/04/04 00:55:58;;;;;;;23.98;7.65;;;;;;;;;;5111228;28;20615;-71
2022/04/04 00:58:26;;;;;;;23.60;7.32;;;;;;;;;;5111667;28;20210;-70
2022/04/04 01:00:55;;;;;;;24.38;6.75;;;;;;;;;;5111233;28;20214;-70
2022/04/04 01:03:22;;;;;;;27.35;8.07;;;;;;;;;;5110929;28;20229;-70
2022/04/04 01:05:50;;;;;;;24.38;7.57;;;;;;;;;;5111081;28;20215;-70
2022/04/04 01:08:17;;;;;;;23.23;6.85;;;;;;;;;;5111147;28;20207;-70
2022/04/04 01:10:45;;;;;;;23.25;5.72;;;;;;;;;;5110391;28;20226;-70
2022/04/04 01:13:13;;;;;;;30.35;8.63;;;;;;;;;;5110097;28;20210;-70
2022/04/04 01:15:41;;;;;;;21.92;6.78;;;;;;;;;;5110751;28;20231;-70
2022/04/04 01:18:10;;;;;;;25.60;7.47;;;;;;;;;;5110509;28;20238;-70
2022/04/04 01:20:38;;;;;;;24.75;7.18;;;;;;;;;;5110919;28;20211;-70
2022/04/04 01:23:06;;;;;;;24.10;7.70;;;;;;;;;;5110759;28;20731;-71
2022/04/04 01:25:36;;;;;;;22.25;7.05;;;;;;;;;;5110699;28;20210;-70
2022/04/04 01:28:04;;;;;;;25.45;8.85;;;;;;;;;;5110675;28;20203;-70
2022/04/04 01:30:32;;;;;;;21.70;6.60;;;;;;;;;;5110605;28;20590;-70
2022/04/04 01:32:59;;;;;;;24.40;6.72;;;;;;;;;;5110897;28;20265;-70
2022/04/04 01:35:27;;;;;;;25.45;7.63;;;;;;;;;;5110512;28;20241;-70
2022/04/04 01:37:54;;;;;;;24.48;6.88;;;;;;;;;;5110539;28;20688;-70
2022/04/04 01:40:22;;;;;;;26.02;6.78;;;;;;;;;;5110615;28;20692;-70
2022/04/04 01:42:51;;;;;;;23.00;6.85;;;;;;;;;;5110715;28;20203;-70
2022/04/04 01:46:23;;;;;;;36.78;10.10;;;;;;;;;;5110398;28;20203;-71
2022/04/04 01:48:07;;;;;;;33.92;9.10;;;;;;;;;;5110351;28;20205;-70
2022/04/04 01:50:35;;;;;;;28.20;8.13;;;;;;;;;;5110480;28;20883;-71
2022/04/04 01:55:44;;;;;;;21.88;7.03;;;;;;;;;;5109744;28;20225;-70
2022/04/04 01:58:12;;;;;;;33.88;8.30;;;;;;;;;;5110600;28;20290;-70
2022/04/04 02:00:40;;;;;;;22.88;6.72;;;;;;;;;;5110225;28;20203;-70
2022/04/04 02:03:08;;;;;;;31.25;8.40;;;;;;;;;;5110300;28;20203;-71
2022/04/04 02:05:36;;;;;;;27.60;8.20;;;;;;;;;;5110552;28;20211;-70
2022/04/04 02:08:03;;;;;;;26.30;8.45;;;;;;;;;;5110289;28;20691;-70
2022/04/04 02:10:31;;;;;;;25.55;8.60;;;;;;;;;;5110104;28;20223;-69
2022/04/04 02:12:59;;;;;;;26.02;7.28;;;;;;;;;;5110172;28;20294;-70
2022/04/04 02:15:28;;;;;;;25.88;8.90;;;;;;;;;;5110368;28;20246;-70
2022/04/04 02:17:56;;;;;;;29.23;8.57;;;;;;;;;;5110340;28;20250;-70
2022/04/04 02:20:24;;;;;;;26.40;8.75;;;;;;;;;;5110139;28;20210;-70
2022/04/04 02:22:51;;;;;;;24.08;7.50;;;;;;;;;;5110714;28;20697;-70
2022/04/04 02:25:19;;;;;;;31.80;8.57;;;;;;;;;;5113804;28;20237;-70
2022/04/04 02:27:46;;;;;;;24.33;8.30;;;;;;;;;;5114040;28;20695;-70
2022/04/04 02:30:14;;;;;;;25.10;7.72;;;;;;;;;;5114140;28;20207;-70
2022/04/04 02:32:43;;;;;;;25.30;9.23;;;;;;;;;;5113855;28;20260;-70
2022/04/04 02:35:11;;;;;;;35.60;9.85;;;;;;;;;;5113636;28;20239;-70
2022/04/04 02:37:39;;;;;;;25.25;8.90;;;;;;;;;;5114049;28;20213;-70
2022/04/04 02:40:07;;;;;;;26.00;9.70;;;;;;;;;;5113615;28;20214;-70
2022/04/04 02:42:34;;;;;;;24.98;7.90;;;;;;;;;;5113630;28;20207;-70
2022/04/04 02:45:02;;;;;;;29.85;9.25;;;;;;;;;;5113409;28;20207;-71
2022/04/04 02:47:29;;;;;;;23.35;8.73;;;;;;;;;;5113559;28;20683;-70
2022/04/04 02:49:58;;;;;;;26.08;7.78;;;;;;;;;;5113816;28;20594;-70
2022/04/04 02:52:25;;;;;;;34.20;10.00;;;;;;;;;;5087316;28;20641;-70
2022/04/04 02:54:53;;;;;;;26.17;7.47;;;;;;;;;;5093881;28;20211;-70
2022/04/04 02:57:20;;;;;;;25.55;8.75;;;;;;;;;;5094144;28;20221;-70
2022/04/04 02:59:47;;;;;;;29.13;9.98;;;;;;;;;;5094021;28;20273;-70
2022/04/04 03:02:15;;;;;;;25.90;7.75;;;;;;;;;;5093850;28;20211;-70
2022/04/04 03:04:42;;;;;;;26.40;8.43;;;;;;;;;;5093904;28;20824;-70
2022/04/04 03:07:11;;;;;;;45.70;12.35;;;;;;;;;;5093444;28;20738;-69
2022/04/04 03:09:39;;;;;;;25.50;9.05;;;;;;;;;;5093494;28;20289;-69
2022/04/04 03:12:09;;;;;;;29.35;9.10;;;;;;;;;;5093911;28;20211;-70
2022/04/04 03:14:36;;;;;;;25.75;7.55;;;;;;;;;;5093636;28;20640;-71
2022/04/04 03:17:03;;;;;;;30.05;9.18;;;;;;;;;;5086352;28;20258;-71
2022/04/04 03:19:31;;;;;;;29.10;9.57;;;;;;;;;;5093443;28;20235;-70
2022/04/04 03:21:58;;;;;;;27.25;9.25;;;;;;;;;;5093392;28;20565;-70
2022/04/04 03:24:27;;;;;;;26.60;7.95;;;;;;;;;;5093598;28;20238;-70
2022/04/04 03:26:55;;;;;;;28.20;9.48;;;;;;;;;;5093398;28;20215;-70
2022/04/04 03:29:23;;;;;;;25.70;9.38;;;;;;;;;;5093160;28;20211;-70
2022/04/04 03:31:50;;;;;;;27.63;9.02;;;;;;;;;;5093401;28;20295;-70
2022/04/04 03:34:17;;;;;;;30.42;9.35;;;;;;;;;;5092966;28;20219;-70
2022/04/04 03:36:47;;;;;;;23.90;8.30;;;;;;;;;;5092940;28;20232;-70
2022/04/04 03:39:16;;;;;;;33.53;11.00;;;;;;;;;;5092992;28;20310;-71
2022/04/04 03:41:45;;;;;;;32.58;8.68;;;;;;;;;;5093147;28;20200;-70
2022/04/04 03:44:13;;;;;;;26.60;9.60;;;;;;;;;;5093161;28;20226;-70
2022/04/04 03:46:41;;;;;;;26.90;9.43;;;;;;;;;;5092976;28;20234;-70
2022/04/04 03:49:09;;;;;;;25.80;9.07;;;;;;;;;;5092748;28;20211;-70
2022/04/04 03:51:36;;;;;;;27.85;9.43;;;;;;;;;;5092955;28;20589;-70
2022/04/04 03:54:07;;;;;;;29.95;9.48;;;;;;;;;;5092928;28;20214;-71
2022/04/04 03:56:35;;;;;;;33.10;10.45;;;;;;;;;;5092847;28;20231;-70
2022/04/04 03:59:04;;;;;;;27.20;8.55;;;;;;;;;;5092491;28;20204;-70
2022/04/04 04:01:32;;;;;;;31.48;10.68;;;;;;;;;;5092565;28;20204;-71
2022/04/04 04:04:00;;;;;;;29.40;8.48;;;;;;;;;;5092957;28;20214;-70
2022/04/04 04:06:28;;;;;;;26.48;9.38;;;;;;;;;;5092617;28;20208;-70
2022/04/04 04:08:57;;;;;;;31.55;10.57;;;;;;;;;;5085453;28;20302;-70
2022/04/04 04:11:24;;;;;;;28.05;8.45;;;;;;;;;;5092241;28;20728;-70
2022/04/04 04:13:52;;;;;;;32.38;10.93;;;;;;;;;;5092297;28;20204;-70
2022/04/04 04:16:23;;;;;;;30.90;10.55;;;;;;;;;;5092544;28;20228;-70
2022/04/04 04:18:51;;;;;;;28.13;8.43;;;;;;;;;;5092205;28;20630;-71
2022/04/04 04:21:18;;;;;;;37.47;12.52;;;;;;;;;;5092155;28;20203;-70
2022/04/04 04:23:46;;;;;;;29.90;10.68;;;;;;;;;;5092246;28;20602;-70
2022/04/04 04:26:14;;;;;;;33.33;10.20;;;;;;;;;;5092179;28;20208;-70
2022/04/04 04:28:42;;;;;;;29.40;9.82;;;;;;;;;;5092025;28;20268;-70
2022/04/04 04:31:09;;;;;;;28.48;10.70;;;;;;;;;;5092100;28;20238;-70
2022/04/04 04:33:38;;;;;;;29.38;9.35;;;;;;;;;;5085310;28;20298;-70
2022/04/04 04:36:07;;;;;;;28.52;9.88;;;;;;;;;;5091914;28;20712;-71
2022/04/04 04:38:35;;;;;;;31.67;10.93;;;;;;;;;;5091922;28;20705;-71
2022/04/04 04:41:02;;;;;;;26.55;10.05;;;;;;;;;;5091663;28;20204;-71
2022/04/04 04:43:30;;;;;;;23.52;7.78;;;;;;;;;;5091876;28;20200;-71
2022/04/04 04:45:57;;;;;;;30.52;10.25;;;;;;;;;;5091595;28;20208;-71
2022/04/04 04:48:25;;;;;;;33.05;10.15;;;;;;;;;;5091428;28;20300;-71
2022/04/04 04:50:53;;;;;;;26.92;9.50;;;;;;;;;;5091855;28;20217;-71
2022/04/04 04:53:21;;;;;;;24.65;8.82;;;;;;;;;;5091592;28;20211;-71
2022/04/04 04:55:49;;;;;;;22.50;6.90;;;;;;;;;;5091573;28;20301;-71
2022/04/04 04:58:17;;;;;;;25.58;8.38;;;;;;;;;;5085040;28;20215;-68
2022/04/04 05:00:44;;;;;;;26.15;9.32;;;;;;;;;;5091772;28;20212;-70
2022/04/04 05:03:27;;;;;;;29.15;8.30;;;;;;;;;;5091398;28;20290;-70
2022/04/04 05:05:56;;;;;;;28.13;7.45;;;;;;;;;;5091381;28;20204;-71
2022/04/04 05:08:24;;;;;;;23.00;8.63;;;;;;;;;;5091499;28;20200;-69
2022/04/04 05:10:53;;;;;;;22.20;7.20;;;;;;;;;;5091024;28;20739;-71
2022/04/04 05:13:21;;;;;;;27.73;8.53;;;;;;;;;;5091387;28;20206;-70
2022/04/04 05:15:49;;;;;;;22.70;7.67;;;;;;;;;;5091287;28;20442;-71
2022/04/04 05:18:17;;;;;;;24.90;8.13;;;;;;;;;;5091242;28;20500;-71
2022/04/04 05:20:45;;;;;;;23.43;7.30;;;;;;;;;;5091414;28;20442;-71
2022/04/04 05:23:14;;;;;;;27.93;8.07;;;;;;;;;;5091302;28;20839;-71
2022/04/04 05:25:42;;;;;;;21.23;6.40;;;;;;;;;;5091536;28;20438;-71
2022/04/04 05:28:10;;;;;;;26.17;7.03;;;;;;;;;;5091326;28;20449;-71
2022/04/04 05:30:38;;;;;;;23.37;8.10;;;;;;;;;;5091225;28;20480;-71
2022/04/04 05:33:05;;;;;;;20.40;7.40;;;;;;;;;;5110238;28;20453;-71
2022/04/04 05:35:32;;;;;;;23.60;8.00;;;;;;;;;;5110828;28;20437;-71
2022/04/04 05:38:00;;;;;;;21.17;7.30;;;;;;;;;;5110805;28;20914;-71
2022/04/04 05:40:29;;;;;;;22.40;8.33;;;;;;;;;;5110571;28;20950;-71
2022/04/04 05:42:57;;;;;;;22.50;7.10;;;;;;;;;;5110509;28;20453;-71
2022/04/04 05:45:25;;;;;;;24.67;8.37;;;;;;;;;;5110364;28;20449;-71
2022/04/04 05:47:53;;;;;;;23.10;7.63;;;;;;;;;;5110684;28;20456;-71
2022/04/04 05:50:20;;;;;;;20.60;7.17;;;;;;;;;;5110836;28;20456;-71
2022/04/04 05:52:48;;;;;;;24.30;8.77;;;;;;;;;;5110510;28;20460;-71
2022/04/04 05:55:15;;;;;;;26.23;8.17;;;;;;;;;;5084290;28;20486;-71
2022/04/04 05:57:45;;;;;;;20.53;7.30;;;;;;;;;;5091046;28;20494;-71
2022/04/04 06:00:15;;;;;;;20.40;6.10;;;;;;;;;;5095005;28;20525;-71
2022/04/04 06:02:43;;;;;;;19.20;6.40;;;;;;;;;;5095204;28;20455;-71
2022/04/04 06:05:11;;;;;;;29.83;9.67;;;;;;;;;;5094661;28;20454;-71
2022/04/04 06:07:38;;;;;;;20.37;5.80;;;;;;;;;;5094987;28;20462;-71
2022/04/04 06:10:07;;;;;;;20.67;7.33;;;;;;;;;;5094494;28;20556;-71
2022/04/04 06:12:35;;;;;;;23.50;7.97;;;;;;;;;;5094687;28;20942;-71
2022/04/04 06:15:04;;;;;;;22.13;7.67;;;;;;;;;;5094494;28;20446;-72
2022/04/04 06:17:32;;;;;;;24.67;8.90;;;;;;;;;;5094426;28;20500;-71
2022/04/04 06:20:00;;;;;;;19.33;7.30;;;;;;;;;;5094524;28;20457;-71
2022/04/04 06:22:27;;;;;;;23.60;7.90;;;;;;;;;;5087872;28;20446;-72
2022/04/04 06:24:55;;;;;;;21.07;8.27;;;;;;;;;;5094554;28;20450;-72
2022/04/04 06:27:22;;;;;;;22.57;8.73;;;;;;;;;;5094309;28;20474;-72
2022/04/04 06:29:50;;;;;;;22.93;8.47;;;;;;;;;;5094714;28;20458;-71
2022/04/04 06:32:18;;;;;;;21.00;6.90;;;;;;;;;;5094612;28;20929;-71
2022/04/04 06:34:46;;;;;;;23.53;8.67;;;;;;;;;;5094331;28;20797;-71
2022/04/04 06:37:14;;;;;;;27.50;9.70;;;;;;;;;;5093994;28;20487;-71
2022/04/04 06:39:41;;;;;;;25.07;9.13;;;;;;;;;;5094562;28;20851;-71
2022/04/04 06:42:09;;;;;;;23.27;8.53;;;;;;;;;;5094411;28;20491;-71
2022/04/04 06:44:37;;;;;;;22.87;8.77;;;;;;;;;;5094033;28;20449;-71
2022/04/04 06:47:05;;;;;;;24.37;8.77;;;;;;;;;;5087094;28;20467;-71
2022/04/04 06:49:34;;;;;;;27.93;9.47;;;;;;;;;;5094082;28;20442;-71
2022/04/04 06:52:01;;;;;;;23.90;9.57;;;;;;;;;;5094047;28;20978;-71
2022/04/04 06:54:29;;;;;;;23.00;9.20;;;;;;;;;;5094080;28;20492;-70
2022/04/04 06:56:57;;;;;;;22.50;7.80;;;;;;;;;;5094074;28;20489;-70
2022/04/04 06:59:25;;;;;;;22.00;7.63;;;;;;;;;;5093820;28;20449;-72
2022/04/04 07:01:52;;;;;;;22.37;7.53;;;;;;;;;;5093827;28;20449;-71
2022/04/04 07:04:20;;;;;;;22.53;7.73;;;;;;;;;;5093965;28;20472;-72
2022/04/04 07:06:48;;;;;;;26.00;9.23;;;;;;;;;;5093634;28;20454;-72
2022/04/04 07:09:16;;;;;;;26.37;7.90;;;;;;;;;;5092651;28;20480;-72
2022/04/04 07:11:44;;;;;;;23.33;8.43;;;;;;;;;;5086181;28;20461;-72
2022/04/04 07:14:11;;;;;;;20.43;7.03;;;;;;;;;;5093744;28;20903;-71
2022/04/04 07:16:39;;;;;;;23.50;9.07;;;;;;;;;;5093383;28;20483;-72
2022/04/04 07:19:09;;;;;;;24.60;8.53;;;;;;;;;;5093227;28;20532;-71
2022/04/04 07:21:37;;;;;;;22.10;8.60;;;;;;;;;;5093910;28;20460;-72
2022/04/04 07:24:06;;;;;;;25.67;9.30;;;;;;;;;;5093596;28;20458;-71
2022/04/04 07:26:34;;;;;;;25.37;9.50;;;;;;;;;;5093352;28;20921;-72
2022/04/04 07:29:02;;;;;;;25.03;9.37;;;;;;;;;;5093196;28;20451;-72
2022/04/04 07:31:29;;;;;;;19.70;6.80;;;;;;;;;;5093332;28;20453;-72
2022/04/04 07:33:57;;;;;;;24.40;8.00;;;;;;;;;;5093086;28;21004;-72
2022/04/04 07:36:24;;;;;;;22.80;8.63;;;;;;;;;;5086349;28;20964;-72
2022/04/04 07:38:52;;;;;;;21.23;8.80;;;;;;;;;;5093284;28;20450;-72
2022/04/04 07:41:21;;;;;;;26.00;9.03;;;;;;;;;;5093134;28;20454;-72
2022/04/04 07:43:49;;;;;;;26.27;8.00;;;;;;;;;;5093105;28;20451;-71
2022/04/04 07:46:17;;;;;;;25.13;8.50;;;;;;;;;;5092967;28;20508;-71
2022/04/04 07:48:45;;;;;;;24.70;8.90;;;;;;;;;;5093000;28;20484;-72
2022/04/04 07:51:13;;;;;;;33.63;9.57;;;;;;;;;;5092790;28;20454;-72
2022/04/04 07:53:40;;;;;;;25.23;8.77;;;;;;;;;;5092763;28;20962;-72
2022/04/04 07:56:08;;;;;;;28.03;9.87;;;;;;;;;;5093033;28;20541;-71
2022/04/04 07:58:36;;;;;;;26.87;10.30;;;;;;;;;;5092552;28;20478;-70
2022/04/04 08:01:04;;;;;;;178.73;62.97;;;;;;;;;;5112090;28;20441;-71
2022/04/04 08:03:32;;;;;;;624.77;246.00;;;;;;;;;;5112425;28;20502;-71
2022/04/04 08:05:59;;;;;;;36.03;12.50;;;;;;;;;;5112022;28;20970;-71
2022/04/04 08:08:26;;;;;;;262.70;94.23;;;;;;;;;;5112006;28;20452;-70
2022/04/04 08:10:54;;;;;;;35.70;14.33;;;;;;;;;;5111538;28;20465;-70
2022/04/04 08:13:23;;;;;;;34.93;12.80;;;;;;;;;;5111688;28;20531;-70
2022/04/04 08:15:52;;;;;;;65.13;24.50;;;;;;;;;;5112034;28;20451;-70
2022/04/04 08:18:20;;;;;;;27.70;8.03;;;;;;;;;;5111708;28;21017;-71
2022/04/04 08:20:48;;;;;;;23.80;8.40;;;;;;;;;;5111964;28;20466;-71
2022/04/04 08:23:15;;;;;;;32.83;8.70;;;;;;;;;;5111779;28;20453;-71
2022/04/04 08:25:43;;;;;;;66.83;23.87;;;;;;;;;;5085382;28;20450;-71
2022/04/04 08:28:10;;;;;;;28.33;8.60;;;;;;;;;;5092165;28;20452;-71
2022/04/04 08:30:37;;;;;;;29.83;11.20;;;;;;;;;;5092133;28;20456;-71
2022/04/04 08:33:06;;;;;;;21.47;6.70;;;;;;;;;;5092061;28;20467;-71
2022/04/04 08:35:35;;;;;;;214.03;73.47;;;;;;;;;;5092209;28;20473;-69
2022/04/04 08:38:03;;;;;;;363.40;132.03;;;;;;;;;;5091938;28;20494;-71
2022/04/04 08:40:31;;;;;;;346.50;125.10;;;;;;;;;;5091847;28;20455;-71
2022/04/04 08:42:58;;;;;;;30.23;9.10;;;;;;;;;;5092166;28;20460;-70
2022/04/04 08:45:26;;;;;;;24.33;7.88;;;;;;;;;;5091997;28;20207;-71
2022/04/04 08:47:54;;;;;;;21.97;6.97;;;;;;;;;;5091725;28;20209;-71
2022/04/04 08:50:23;;;;;;;22.17;6.20;;;;;;;;;;5091847;28;20939;-70
2022/04/04 08:52:51;;;;;;;47.30;13.57;;;;;;;;;;5091927;28;20457;-70
2022/04/04 08:55:18;;;;;;;28.73;8.80;;;;;;;;;;5091685;28;20456;-69
2022/04/04 08:57:46;;;;;;;21.57;5.90;;;;;;;;;;5091555;28;20488;-70
2022/04/04 09:00:14;;;;;;;39.33;10.80;;;;;;;;;;5091612;28;20454;-70
2022/04/04 09:02:41;;;;;;;21.23;6.80;;;;;;;;;;5091577;28;20438;-70
2022/04/04 09:05:09;;;;;;;21.00;6.97;;;;;;;;;;5091326;28;20457;-70
2022/04/04 09:07:59;;;;;;;23.70;7.93;;;;;;;;;;5091376;28;20463;-70
2022/04/04 09:10:40;;;;;;;77.57;28.83;;;;;;;;;;5091145;28;20999;-70
2022/04/04 09:13:08;;;;;;;47.08;14.18;;;;;;;;;;5091406;28;20450;-70
2022/04/04 09:15:54;;;;;;;33.20;10.65;;;;;;;;;;5091379;28;20209;-70
2022/04/04 09:18:25;;;;;;;82.10;28.10;;;;;;;;;;5091302;28;20251;-70
2022/04/04 09:20:52;;;;;;;113.53;40.63;;;;;;;;;;5092093;28;20268;-70
2022/04/04 09:23:21;;;;;;;44.78;14.55;;;;;;;;;;5091292;28;20594;-70
2022/04/04 09:25:50;;;;;;;62.28;20.05;;;;;;;;;;5091398;28;20212;-70
2022/04/04 09:28:19;;;;;;;27.65;10.00;;;;;;;;;;5091736;28;20596;-70
2022/04/04 09:31:05;;;;;;;36.35;11.18;;;;;;;;;;5091215;28;20211;-70
2022/04/04 09:33:36;;;;;;;27.10;9.77;;;;;;;;;;5090869;28;20700;-70
2022/04/04 09:36:04;;;;;;;37.42;13.38;;;;;;;;;;5091302;28;20200;-70
2022/04/04 09:38:34;;;;;;;30.52;10.57;;;;;;;;;;5091064;28;20240;-70
2022/04/04 09:41:06;;;;;;;41.53;15.85;;;;;;;;;;5090783;28;20265;-71
2022/04/04 09:43:48;;;;;;;57.67;19.67;;;;;;;;;;5091344;28;20257;-71
2022/04/04 09:46:15;;;;;;;31.13;9.02;;;;;;;;;;5091300;28;20693;-70
2022/04/04 09:49:01;;;;;;;34.17;13.05;;;;;;;;;;5091148;28;20238;-71
2022/04/04 09:51:35;;;;;;;50.10;16.95;;;;;;;;;;5090981;28;20613;-70
2022/04/04 09:54:04;;;;;;;32.63;11.85;;;;;;;;;;5091248;28;20211;-70
2022/04/04 09:56:32;;;;;;;31.30;10.43;;;;;;;;;;5090962;28;20211;-70
2022/04/04 09:59:01;;;;;;;26.60;9.60;;;;;;;;;;5091042;28;20250;-71
2022/04/04 10:01:29;;;;;;;70.38;26.25;;;;;;;;;;5091403;28;20315;-70
2022/04/04 10:03:57;;;;;;;21.45;6.18;;;;;;;;;;5090967;28;20299;-70
2022/04/04 10:06:27;;;;;;;38.78;12.18;;;;;;;;;;5091101;28;20211;-71
2022/04/04 10:08:57;;;;;;;31.88;8.60;;;;;;;;;;5090765;28;20219;-69
2022/04/04 10:11:26;;;;;;;33.13;12.02;;;;;;;;;;5090591;28;20234;-70
2022/04/04 10:13:56;;;;;;;48.83;16.58;;;;;;;;;;5091138;28;20216;-70
2022/04/04 10:16:24;;;;;;;25.50;7.65;;;;;;;;;;5090691;28;20291;-70
2022/04/04 10:18:54;;;;;;;62.38;21.30;;;;;;;;;;5083963;28;20250;-71
2022/04/04 10:21:21;;;;;;;24.05;7.75;;;;;;;;;;5090570;28;20410;-71
2022/04/04 10:23:49;;;;;;;63.38;20.10;;;;;;;;;;5090888;28;20215;-71
2022/04/04 10:26:17;;;;;;;23.33;7.03;;;;;;;;;;5090668;28;20208;-71
2022/04/04 10:28:46;;;;;;;42.45;13.52;;;;;;;;;;5090610;28;20215;-70
2022/04/04 10:31:15;;;;;;;39.72;11.45;;;;;;;;;;5090691;28;20214;-71
2022/04/04 10:33:42;;;;;;;86.40;26.73;;;;;;;;;;5090785;28;20218;-71
2022/04/04 10:36:10;;;;;;;21.98;7.88;;;;;;;;;;5090795;28;20211;-71
2022/04/04 10:38:38;;;;;;;34.65;11.35;;;;;;;;;;5090700;28;20232;-71
2022/04/04 10:41:07;;;;;;;27.23;8.63;;;;;;;;;;5090490;28;20211;-71
2022/04/04 10:43:35;;;;;;;70.18;23.10;;;;;;;;;;5090314;28;20208;-70
2022/04/04 10:46:08;;;;;;;32.22;11.35;;;;;;;;;;5092978;28;20768;-70
2022/04/04 10:48:38;;;;;;;23.98;6.65;;;;;;;;;;5094502;28;20212;-70
2022/04/04 10:51:12;;;;;;;26.77;7.45;;;;;;;;;;5094276;28;20291;-70
2022/04/04 10:53:44;;;;;;;26.08;8.45;;;;;;;;;;5094157;28;20279;-70
2022/04/04 10:56:13;;;;;;;24.88;6.45;;;;;;;;;;5093948;28;20209;-70
2022/04/04 10:58:40;;;;;;;21.85;6.90;;;;;;;;;;5093828;28;20273;-70
2022/04/04 11:01:15;;;;;;;36.15;12.38;;;;;;;;;;5093669;28;20605;-71
2022/04/04 11:03:44;;;;;;;34.20;8.70;;;;;;;;;;5094212;28;20593;-71
2022/04/04 11:09:02;;;;;;;34.72;8.23;;;;;;;;;;5093533;28;20207;-70
2022/04/04 11:11:43;;;;;;;25.30;6.47;;;;;;;;;;5093729;28;20297;-70
2022/04/04 11:14:11;;;;;;;22.85;7.28;;;;;;;;;;5087222;28;20277;-70
2022/04/04 11:16:58;;;;;;;18.30;5.85;;;;;;;;;;5093513;28;20211;-70
2022/04/04 11:19:45;;;;;;;24.73;7.25;;;;;;;;;;5093536;28;20239;-69
2022/04/04 11:22:17;;;;;;;35.17;13.52;;;;;;;;;;5058443;28;20704;-70
2022/04/04 11:24:45;;;;;;;24.88;8.00;;;;;;;;;;5075299;28;20225;-70
2022/04/04 11:27:13;;;;;;;60.33;19.85;;;;;;;;;;5093221;28;20700;-70
2022/04/04 11:29:41;;;;;;;25.48;8.32;;;;;;;;;;5093390;28;20677;-70
2022/04/04 11:32:09;;;;;;;24.08;5.97;;;;;;;;;;5093244;28;20593;-70
2022/04/04 11:34:42;;;;;;;20.25;6.07;;;;;;;;;;5093291;28;20208;-70
2022/04/04 11:37:17;;;;;;;21.83;5.82;;;;;;;;;;5086749;28;20216;-70
2022/04/04 11:39:45;;;;;;;20.70;6.25;;;;;;;;;;5092956;28;20232;-70
2022/04/04 11:42:12;;;;;;;25.30;8.13;;;;;;;;;;5086148;28;20216;-70
2022/04/04 11:44:46;;;;;;;25.20;7.40;;;;;;;;;;5093218;28;20204;-71
2022/04/04 11:47:16;;;;;;;25.58;6.93;;;;;;;;;;5092991;28;20215;-70
2022/04/04 11:49:46;;;;;;;20.90;6.63;;;;;;;;;;5093330;28;20216;-70
2022/04/04 11:52:18;;;;;;;21.23;7.22;;;;;;;;;;5092733;28;20467;-70
2022/04/04 11:54:50;;;;;;;19.33;6.03;;;;;;;;;;5092869;28;20258;-70
2022/04/04 11:57:18;;;;;;;31.80;9.95;;;;;;;;;;5092545;28;20204;-71
2022/04/04 11:59:46;;;;;;;21.52;6.45;;;;;;;;;;5092798;28;20788;-70
2022/04/04 12:02:14;;;;;;;25.27;8.37;;;;;;;;;;5092562;28;20577;-71
2022/04/04 12:04:43;;;;;;;28.90;9.80;;;;;;;;;;5092885;28;20994;-70
2022/04/04 12:07:12;;;;;;;42.28;12.30;;;;;;;;;;5092491;28;21003;-70
2022/04/04 12:09:40;;;;;;;33.28;12.80;;;;;;;;;;5092146;28;20709;-71
2022/04/04 12:12:09;;;;;;;34.05;9.50;;;;;;;;;;5092851;28;20215;-71
2022/04/04 12:14:38;;;;;;;27.63;9.90;;;;;;;;;;5092207;28;20201;-71
2022/04/04 12:17:05;;;;;;;44.00;12.95;;;;;;;;;;5091970;28;20261;-71
2022/04/04 12:19:34;;;;;;;28.23;9.30;;;;;;;;;;5091993;28;20250;-69
2022/04/04 12:24:54;;;;;;;36.00;10.88;;;;;;;;;;5092276;28;20756;-69
2022/04/04 12:24:56;;;;;;;27.90;9.30;;;;;;;;;;5092087;28;20210;-69
2022/04/04 12:27:24;;;;;;;30.42;10.65;;;;;;;;;;5092100;28;20215;-70
2022/04/04 12:29:59;;;;;;;31.77;9.63;;;;;;;;;;5085302;28;20208;-69
2022/04/04 12:32:26;;;;;;;30.92;9.68;;;;;;;;;;5092146;28;20207;-69
2022/04/04 12:34:59;;;;;;;29.33;8.73;;;;;;;;;;5111860;28;20298;-70
2022/04/04 12:37:36;;;;;;;29.30;8.77;;;;;;;;;;5111416;28;20211;-70
2022/04/04 12:40:15;;;;;;;23.23;7.60;;;;;;;;;;5085010;28;20235;-70
2022/04/04 12:42:42;;;;;;;23.90;7.72;;;;;;;;;;5092170;28;20214;-70
2022/04/04 12:45:11;;;;;;;28.60;10.02;;;;;;;;;;5091836;28;20257;-70
2022/04/04 12:47:53;;;;;;;25.48;7.90;;;;;;;;;;5092015;28;20199;-70
2022/04/04 12:50:22;;;;;;;23.27;6.70;;;;;;;;;;5091970;28;20265;-70
2022/04/04 12:53:00;;;;;;;23.03;7.70;;;;;;;;;;5085504;28;20539;-69
2022/04/04 12:55:29;;;;;;;24.23;7.32;;;;;;;;;;5091713;28;20442;-72
2022/04/04 12:57:57;;;;;;;23.37;7.80;;;;;;;;;;5091815;28;20208;-70
2022/04/04 13:00:28;;;;;;;23.70;7.43;;;;;;;;;;5111104;28;20477;-71
2022/04/04 13:02:56;;;;;;;24.27;7.43;;;;;;;;;;5111575;28;20262;-70
2022/04/04 13:05:28;;;;;;;21.47;7.27;;;;;;;;;;5110731;28;20450;-72
2022/04/04 13:07:57;;;;;;;21.70;9.13;;;;;;;;;;5110209;28;20819;-69
2022/04/04 13:10:26;;;;;;;24.55;7.40;;;;;;;;;;5099586;28;20552;-69
2022/04/04 13:13:10;;;;;;;27.83;9.27;;;;;;;;;;5091886;28;20209;-69
2022/04/04 13:15:38;;;;;;;21.80;7.80;;;;;;;;;;5091645;28;20205;-69
2022/04/04 13:18:05;;;;;;;24.20;8.57;;;;;;;;;;5091472;28;20318;-69
2022/04/04 13:20:33;;;;;;;27.40;8.20;;;;;;;;;;5091462;28;20630;-69
2022/04/04 13:23:00;;;;;;;31.42;11.13;;;;;;;;;;5091440;28;20204;-70
2022/04/04 13:25:28;;;;;;;29.15;8.63;;;;;;;;;;5091407;28;20685;-70
2022/04/04 13:27:56;;;;;;;24.70;8.32;;;;;;;;;;5091501;28;20215;-70
2022/04/04 13:30:25;;;;;;;25.73;8.10;;;;;;;;;;5091152;28;20235;-70
2022/04/04 13:32:52;;;;;;;24.13;7.55;;;;;;;;;;5091358;28;20208;-70
2022/04/04 13:35:19;;;;;;;29.77;8.68;;;;;;;;;;5090866;28;20204;-70
2022/04/04 13:37:47;;;;;;;22.60;7.45;;;;;;;;;;5110750;28;20571;-70
2022/04/04 13:40:15;;;;;;;22.17;7.15;;;;;;;;;;5110615;28;20300;-70
2022/04/04 13:42:42;;;;;;;24.13;8.70;;;;;;;;;;5110497;28;20210;-70
2022/04/04 13:45:13;;;;;;;27.20;8.55;;;;;;;;;;5110352;28;20207;-69
2022/04/04 13:47:42;;;;;;;24.20;8.30;;;;;;;;;;5110819;28;20199;-69
2022/04/04 13:50:10;;;;;;;22.63;7.65;;;;;;;;;;5110569;28;20295;-70
2022/04/04 13:52:40;;;;;;;20.70;6.53;;;;;;;;;;5110431;28;20246;-70
2022/04/04 13:55:09;;;;;;;31.87;8.90;;;;;;;;;;5110146;28;20494;-70
2022/04/04 13:57:36;;;;;;;39.40;13.18;;;;;;;;;;5110459;28;20954;-69
2022/04/04 14:00:04;;;;;;;36.55;12.90;;;;;;;;;;5110418;28;20237;-69
2022/04/04 14:02:32;;;;;;;31.10;10.30;;;;;;;;;;5110493;28;20215;-69
2022/04/04 14:05:01;;;;;;;26.85;8.13;;;;;;;;;;5084229;28;20209;-70
2022/04/04 14:07:28;;;;;;;27.90;8.27;;;;;;;;;;5090999;28;20250;-69
2022/04/04 14:09:57;;;;;;;22.40;7.17;;;;;;;;;;5090648;28;20243;-70
2022/04/04 14:12:25;;;;;;;24.63;7.60;;;;;;;;;;5091050;28;20446;-70
2022/04/04 14:14:52;;;;;;;23.30;6.63;;;;;;;;;;5091108;28;20307;-70
2022/04/04 14:17:21;;;;;;;27.75;7.68;;;;;;;;;;5090463;28;20454;-70
2022/04/04 14:19:49;;;;;;;23.90;7.95;;;;;;;;;;5092644;28;20289;-70
2022/04/04 14:22:18;;;;;;;34.45;10.15;;;;;;;;;;5094555;28;20213;-70
2022/04/04 14:24:49;;;;;;;35.40;8.70;;;;;;;;;;5094823;28;20211;-70
2022/04/04 14:27:16;;;;;;;32.70;9.93;;;;;;;;;;5094382;28;20208;-70
2022/04/04 14:29:44;;;;;;;21.90;7.35;;;;;;;;;;5094656;28;20243;-70
2022/04/04 14:32:11;;;;;;;26.92;8.05;;;;;;;;;;5094454;28;20231;-70
2022/04/04 14:34:41;;;;;;;28.92;9.55;;;;;;;;;;5094430;28;20200;-70
2022/04/04 14:37:09;;;;;;;28.02;9.65;;;;;;;;;;5094386;28;20208;-70
2022/04/04 14:39:39;;;;;;;27.58;8.77;;;;;;;;;;5094354;28;20231;-70
2022/04/04 14:42:07;;;;;;;22.70;7.18;;;;;;;;;;5094377;28;20208;-70